• Join FlightAware (Why Join?)
  • Login
  • US Flag 
03:42AM EDT


 

Airport Tracker/Info


-or-


 

Live Flight TrackerFlight Track Log ✈ N631RJ ✈ 16-Jul-2013 ✈ KTEB - KBED

Flight Track Log - Related Links

Times and Time Zones

All times are in EDT time to prevent confusion due to time zone crossing. See the N631RJ flight status page for this flight to view local times or setup timezone preferences in your user account.

Time Position Orientation Groundspeed Altitude Reporting Facility
EDT Latitude Longitude Course Direction KTS MPH feet Rate Location/Type
04:27PM 40.8667 -74.0500 360° North 98 113 900  Level New York TRACON
04:28PM 40.9000 -74.0500 360° North 102 117 1,700 900 Climbing New York TRACON
04:29PM 40.9000 -74.0833 270° West 116 133 2,800 720 Climbing New York TRACON
04:30PM 40.9167 -74.1167 303° West 133 153 3,200 480 Climbing New York TRACON
04:31PM 40.9333 -74.1667 294° West 127 146 3,800 660 Climbing New York TRACON
04:32PM 40.9500 -74.2167 294° West 140 161 4,600 660 Climbing New York TRACON
04:33PM 40.9833 -74.2000 21° North 117 135 5,200 600 Climbing New York TRACON
04:34PM 41.0167 -74.1833 21° North 121 139 5,900 360 Climbing New York TRACON
04:35PM 41.0500 -74.1667 21° North 138 159 6,000  Climbing New York TRACON
04:36PM 41.0833 -74.1500 21° North 150 173 6,000  Level New York TRACON
04:37PM 41.1167 -74.1333 21° North 157 181 6,000  Level New York TRACON
04:38PM 41.1333 -74.0833 66° East 158 182 6,100 420 Climbing New York TRACON
04:39PM 41.1500 -74.0500 56° Northeast 118 136 6,900 420 Climbing New York TRACON
04:40PM 41.1667 -74.0000 66° East 133 153 7,000  Climbing New York TRACON
04:41PM 41.1833 -73.9500 66° East 142 163 7,000  Level New York TRACON
04:42PM 41.2000 -73.9167 56° Northeast 151 174 7,000  Level New York TRACON
04:43PM 41.2167 -73.8667 66° East 153 176 7,000  Level New York TRACON
04:44PM 41.2333 -73.8167 66° East 156 180 7,000  Level New York TRACON
04:45PM 41.2333 -73.7500 90° East 154 177 7,000  Level New York TRACON
04:46PM 41.2500 -73.7000 66° East 156 180 7,000  Level New York TRACON
04:47PM 41.2667 -73.6500 66° East 153 176 7,000  Level New York TRACON
04:48PM 41.2833 -73.5833 72° East 156 180 7,000  Level New York TRACON
04:49PM 41.3000 -73.5333 66° East 155 178 7,000  Level New York TRACON
04:50PM 41.3167 -73.4833 66° East 148 170 7,000  Level New York TRACON
04:51PM 41.3333 -73.4333 66° East 152 175 7,000  Level New York TRACON
04:52PM 41.3500 -73.3833 66° East 152 175 7,000  Level New York TRACON
04:53PM 41.3611 -73.3472 68° East 156 180 7,000  Level Boston Center
04:53PM 41.3758 -73.3142 59° Northeast 154 177 7,000  Level Boston Center
04:54PM 41.3928 -73.2619 67° East 153 176 7,000  Level Boston Center
04:55PM 41.4142 -73.2125 60° Northeast 151 174 7,000  Level Boston Center
04:56PM 41.4414 -73.1628 54° Northeast 151 174 7,000  Level Boston Center
04:57PM 41.4647 -73.1161 56° Northeast 152 175 7,000  Level Boston Center
04:59PM 41.5003 -73.0747 41° Northeast 154 177 7,000  Level Boston Center
05:00PM 41.5317 -73.0447 36° Northeast 151 174 7,000  Level Boston Center
05:01PM 41.5633 -73.0006 46° Northeast 152 175 7,000  Level Boston Center
05:02PM 41.5886 -72.9592 51° Northeast 151 174 7,000  Level Boston Center
05:03PM 41.6178 -72.9150 49° Northeast 151 174 7,000  Level Boston Center
05:04PM 41.6450 -72.8736 49° Northeast 151 174 7,000  Level Boston Center
05:05PM 41.6744 -72.8264 50° Northeast 152 175 7,000  Level Boston Center
05:06PM 41.7017 -72.7847 49° Northeast 152 175 7,000  Level Boston Center
05:07PM 41.7311 -72.7378 50° Northeast 150 173 7,000  Level Boston Center
05:08PM 41.7603 -72.6961 47° Northeast 152 175 7,000 -120 Level Boston Center
05:09PM 41.7811 -72.6600 52° Northeast 154 177 6,800 -420 Descending Boston Center
05:10PM 41.8147 -72.6072 49° Northeast 168 193 6,200 -540 Descending Boston Center
05:11PM 41.8458 -72.5628 47° Northeast 169 194 5,700 -540 Descending Boston Center
05:12PM 41.8772 -72.5097 52° Northeast 171 197 5,200 -360 Descending Boston Center
05:13PM 41.9086 -72.4625 48° Northeast 164 189 5,000 -120 Descending Boston Center
05:14PM 41.9336 -72.4233 49° Northeast 155 178 5,000  Level Boston Center
05:15PM 41.9606 -72.3786 51° Northeast 149 171 5,000  Level Boston Center
05:16PM 41.9897 -72.3367 47° Northeast 152 175 5,000  Level Boston Center
05:17PM 42.0169 -72.2919 51° Northeast 153 176 5,000  Level Boston Center
05:18PM 42.0439 -72.2472 51° Northeast 151 174 5,000  Level Boston Center
05:19PM 42.0708 -72.2025 51° Northeast 150 173 5,000  Level Boston Center
05:20PM 42.1000 -72.1603 47° Northeast 147 169 5,000  Level Boston Center
05:21PM 42.1269 -72.1181 49° Northeast 151 174 5,000  Level Boston Center
05:22PM 42.1519 -72.0761 51° Northeast 149 171 5,000  Level Boston Center
05:23PM 42.1808 -72.0339 47° Northeast 150 173 5,000  Level Boston Center
05:24PM 42.2078 -71.9917 49° Northeast 148 170 5,000  Level Boston Center
05:25PM 42.2367 -71.9467 49° Northeast 150 173 5,000  Level Boston Center
05:26PM 42.2617 -71.9072 49° Northeast 152 175 5,000  Level Boston Center
05:28PM 42.3333 -71.7833 52° Northeast 153 176 5,000  Level KA90
05:29PM 42.3500 -71.7500 56° Northeast 154 177 5,100  Climbing KA90
05:30PM 42.3833 -71.7000 48° Northeast 155 178 5,100  Level KA90
05:31PM 42.4000 -71.6500 66° East 158 182 5,100 -240 Level KA90
05:32PM 42.4167 -71.6000 66° East 158 182 4,700 -540 Descending KA90
05:33PM 42.4500 -71.5333 56° Northeast 176 203 4,000 -600 Descending KA90
05:34PM 42.4667 -71.4833 66° East 179 206 3,500 -480 Descending KA90
05:35PM 42.4667 -71.4167 90° East 171 197 3,100 -240 Descending KA90
05:36PM 42.4833 -71.3667 66° East 155 178 3,100 -240 Level KA90
05:37PM 42.4833 -71.3000 90° East 166 191 2,700 -600 Descending KA90
05:38PM 42.5000 -71.2333 71° East 179 206 2,000 -420 Descending KA90
05:39PM 42.5167 -71.1833 66° East 162 186 1,900 -60 Descending KA90
05:40PM 42.5167 -71.1333 90° East 122 140 1,900  Level KA90
05:41PM 42.5000 -71.0833 114° Southeast 118 136 1,900  Level KA90
05:42PM 42.4833 -71.0667 144° Southeast 122 140 1,900  Level KA90
05:43PM 42.4500 -71.0833 200° South 118 136 1,900  Level KA90
05:44PM 42.4500 -71.1333 270° West 119 137 1,900 -240 Level KA90
05:45PM 42.4667 -71.1667 304° West 119 137 1,500 -540 Descending KA90
05:46PM 42.4667 -71.2167 270° West 121 139 900 -600 Descending KA90
05:48PM 42.4667 -71.2833 236° Southwest  Level FlightAware Approximate